Terminal Aerodrome Forecast
Issued by NWS

Home | Current Version | Previous Version | Text Only | Print | Product List | Glossary On
Versions: 1 2 3 4 5 6 7 8 9 10 11 12 13 14 15
000
FTUS41 KAKQ 231100 CCA
TAFPHF
TAF COR
KPHF 231154Z 2312/2412 07006KT P6SM SCT015 BKN100
      TEMPO 2312/2315 5SM -RA BKN012
     FM231500 08008KT P6SM BKN040
     FM240000 06005KT P6SM BKN025=

USA.gov is the U.S. government's official web portal to all federal, state and local government web resources and services.